Time;durP1;ratioP1;P1;durP2;ratioP2;P2;SDS_P1;SDS_P2;PMS_P1;PMS_P2;Temp;Humidity;BMP_temperature;BMP_pressure;BME280_temperature;BME280_humidity;BME280_pressure;Samples;Min_cycle;Max_cycle;Signal;HPM_P1;HPM_P2
2021/07/25 00:02:28;;;;;;;38.08;24.25;;;19.70;99.90;;;19.24;98.12;99754.34;5050309;28;20037;-83
2021/07/25 00:04:55;;;;;;;37.22;23.55;;;19.70;99.90;;;19.23;97.86;99748.00;5032594;28;20080;-83
2021/07/25 00:07:22;;;;;;;33.55;23.63;;;19.60;99.90;;;19.25;97.77;99767.06;5050056;28;20045;-83
2021/07/25 00:09:50;;;;;;;35.78;24.15;;;19.60;99.90;;;19.24;97.51;99765.38;5050463;28;20087;-83
2021/07/25 00:12:17;;;;;;;35.13;23.63;;;19.60;99.90;;;19.18;97.91;99764.50;5050139;28;20037;-83
2021/07/25 00:14:44;;;;;;;32.60;22.35;;;19.60;99.90;;;19.18;98.00;99758.97;5050116;28;20099;-83
2021/07/25 00:17:11;;;;;;;33.25;22.67;;;19.60;99.90;;;19.19;97.62;99762.56;5049416;28;20045;-83
2021/07/25 00:19:40;;;;;;;36.58;23.75;;;19.60;99.90;;;19.18;97.57;99761.72;5050010;28;20037;-84
2021/07/25 00:22:08;;;;;;;36.55;23.30;;;19.60;99.90;;;19.17;97.53;99757.28;5049839;28;20064;-83
2021/07/25 00:24:37;;;;;;;33.08;22.55;;;19.60;99.90;;;19.16;97.47;99763.09;5049859;28;20037;-83
2021/07/25 00:27:06;;;;;;;33.65;22.25;;;19.50;99.90;;;19.14;97.44;99761.41;5049109;28;20234;-83
2021/07/25 00:29:33;;;;;;;36.28;22.40;;;19.50;99.90;;;19.13;97.09;99770.81;5050010;28;20404;-83
2021/07/25 00:32:02;;;;;;;38.28;23.50;;;19.50;99.90;;;19.12;97.19;99771.88;5049932;28;20041;-83
2021/07/25 00:34:30;;;;;;;33.65;22.02;;;19.50;99.90;;;19.10;97.33;99765.78;5050024;28;20068;-83
2021/07/25 00:37:00;;;;;;;39.42;23.15;;;19.50;99.90;;;19.10;97.27;99765.78;5032467;28;20049;-83
2021/07/25 00:39:27;;;;;;;38.05;24.10;;;19.40;99.90;;;19.10;97.23;99768.56;5049885;28;20049;-83
2021/07/25 00:41:55;;;;;;;33.10;21.73;;;19.40;99.90;;;19.03;97.41;99756.88;5049564;28;20558;-83
2021/07/25 00:44:23;;;;;;;35.97;22.88;;;19.40;99.90;;;19.03;97.42;99765.16;5049761;28;20072;-83
2021/07/25 00:46:58;;;;;;;33.85;23.42;;;19.40;99.90;;;19.03;97.49;99759.63;5049343;28;20118;-83
2021/07/25 00:49:26;;;;;;;34.75;22.73;;;19.40;99.90;;;19.05;97.30;99768.47;5049868;28;20132;-83
2021/07/25 00:51:54;;;;;;;35.95;23.17;;;19.40;99.90;;;19.04;97.35;99764.06;5050376;28;20040;-84
2021/07/25 00:54:24;;;;;;;36.38;22.58;;;19.40;99.90;;;19.05;97.04;99762.97;5049883;28;20124;-84
2021/07/25 00:56:51;;;;;;;34.22;23.27;;;19.40;99.90;;;19.04;97.22;99765.97;5048871;28;20124;-83
2021/07/25 00:59:18;;;;;;;38.78;22.75;;;19.40;99.90;;;19.01;97.36;99764.59;5049199;28;20049;-84
2021/07/25 01:01:47;;;;;;;33.10;22.55;;;19.40;99.90;;;19.04;97.26;99766.84;5049299;28;20056;-84
2021/07/25 01:04:34;;;;;;;34.10;22.85;;;19.40;99.90;;;19.03;97.54;99765.16;5049575;28;20214;-84
2021/07/25 01:07:14;;;;;;;37.97;23.73;;;19.40;99.90;;;19.01;97.45;99761.00;5049058;28;20044;-83
2021/07/25 01:09:54;;;;;;;36.13;23.80;;;19.40;99.90;;;18.98;97.50;99759.56;5049726;28;20041;-84
2021/07/25 01:12:28;;;;;;;41.88;24.80;;;19.40;99.90;;;18.97;98.02;99763.44;5049489;28;20053;-84
2021/07/25 01:14:58;;;;;;;37.45;23.77;;;19.40;99.90;;;18.90;98.61;99768.31;5049298;28;20580;-84
2021/07/25 01:17:29;;;;;;;33.90;23.75;;;19.40;99.90;;;18.92;98.42;99757.84;5048494;28;20567;-84
2021/07/25 01:19:58;;;;;;;40.25;24.75;;;19.40;99.90;;;18.91;98.42;99761.72;5049657;28;20045;-83
2021/07/25 01:22:28;;;;;;;39.28;25.05;;;19.40;99.90;;;18.94;98.22;99750.16;5049016;28;20064;-83
2021/07/25 01:24:56;;;;;;;43.15;25.27;;;19.40;99.90;;;18.94;98.22;99750.16;5049354;28;20049;-84
2021/07/25 01:27:33;;;;;;;37.13;24.45;;;19.40;99.90;;;18.94;98.28;99750.16;5048346;28;20045;-84
2021/07/25 01:30:02;;;;;;;38.97;25.83;;;19.40;99.90;;;18.95;98.30;99751.84;5049228;28;20064;-84
2021/07/25 01:32:30;;;;;;;43.33;26.92;;;19.40;99.90;;;18.91;98.29;99734.16;5048991;28;20798;-84
2021/07/25 01:35:00;;;;;;;38.03;26.25;;;19.40;99.90;;;18.95;98.23;99740.81;5049384;28;20116;-84
2021/07/25 01:37:31;;;;;;;42.05;27.08;;;19.40;99.90;;;18.95;98.57;99741.63;5048350;28;20515;-83
2021/07/25 01:39:58;;;;;;;39.92;25.73;;;19.40;99.90;;;18.96;98.66;99745.22;5049136;28;20134;-83
2021/07/25 01:42:30;;;;;;;43.03;26.88;;;19.40;99.90;;;18.94;98.39;99739.97;5048984;28;20559;-83
2021/07/25 01:44:58;;;;;;;41.45;25.98;;;19.40;99.90;;;18.95;98.73;99746.31;5049097;28;20045;-84
2021/07/25 01:47:26;;;;;;;40.75;26.35;;;19.40;99.90;;;18.92;98.74;99741.31;5048347;28;20545;-84
2021/07/25 01:49:53;;;;;;;46.65;27.30;;;19.40;99.90;;;18.97;98.43;99743.31;5048851;28;20040;-84
2021/07/25 01:52:22;;;;;;;40.05;27.13;;;19.40;99.90;;;18.97;98.34;99738.63;5048727;28;20387;-84
2021/07/25 01:54:49;;;;;;;41.80;26.55;;;19.40;99.90;;;18.96;98.28;99742.47;5048740;28;20045;-84
2021/07/25 01:57:16;;;;;;;42.25;26.77;;;19.40;99.90;;;18.97;98.28;99744.13;5048153;28;20103;-83
2021/07/25 01:59:43;;;;;;;39.35;27.65;;;19.40;99.90;;;18.92;98.36;99749.59;5048706;28;20095;-83
2021/07/25 02:02:11;;;;;;;40.80;26.15;;;19.30;99.90;;;18.93;98.27;99746.56;5062952;22;20044;-85
2021/07/25 02:04:38;;;;;;;41.00;27.45;;;19.40;99.90;;;18.90;98.58;99743.50;5030782;28;20073;-85
2021/07/25 02:07:06;;;;;;;41.47;27.55;;;19.40;99.90;;;18.93;98.49;99740.25;5030232;28;20467;-85
2021/07/25 02:09:36;;;;;;;42.40;27.02;;;19.40;99.90;;;18.93;98.21;99737.47;5048587;28;20051;-84
2021/07/25 02:12:04;;;;;;;41.38;27.52;;;19.30;99.90;;;18.92;98.37;99735.81;5040007;28;20041;-85
2021/07/25 02:14:32;;;;;;;36.70;25.70;;;19.40;99.90;;;18.93;98.25;99737.47;5032788;28;20072;-85
2021/07/25 02:17:00;;;;;;;39.10;26.52;;;19.30;99.90;;;18.93;98.15;99729.22;5031837;28;20046;-85
2021/07/25 02:19:27;;;;;;;39.58;25.77;;;19.30;99.90;;;18.93;98.29;99730.03;5014694;28;20054;-85
2021/07/25 02:21:55;;;;;;;43.13;27.55;;;19.30;99.90;;;18.92;98.11;99730.28;5030825;28;20194;-85
2021/07/25 02:24:22;;;;;;;41.10;26.45;;;19.30;99.90;;;18.93;97.95;99731.97;5032276;28;20589;-85
2021/07/25 02:26:52;;;;;;;42.75;26.75;;;19.30;99.90;;;18.93;97.99;99737.47;5031390;28;20576;-85
2021/07/25 02:29:20;;;;;;;40.03;26.15;;;19.30;99.90;;;18.92;97.74;99735.81;5032313;28;20504;-85
2021/07/25 02:31:47;;;;;;;43.38;26.10;;;19.30;99.90;;;18.91;97.92;99734.16;5015629;28;20127;-85
2021/07/25 02:34:15;;;;;;;38.05;25.75;;;19.30;99.90;;;18.92;97.96;99733.03;5032124;28;20621;-85
2021/07/25 02:36:42;;;;;;;39.10;25.65;;;19.20;99.90;;;18.91;97.85;99731.41;5031470;28;20095;-85
2021/07/25 02:39:09;;;;;;;40.10;26.50;;;19.20;99.90;;;18.88;97.74;99727.22;5032285;28;20506;-85
2021/07/25 02:41:38;;;;;;;39.08;25.15;;;19.20;99.90;;;18.88;97.75;99720.88;5032090;28;20124;-85
2021/07/25 02:44:08;;;;;;;39.75;26.13;;;19.20;99.90;;;18.89;97.84;99719.78;5032018;28;20050;-85
2021/07/25 02:46:35;;;;;;;38.77;25.23;;;19.20;99.90;;;18.88;97.56;99718.13;5031399;28;20812;-85
2021/07/25 02:49:03;;;;;;;41.88;25.50;;;19.10;99.90;;;18.85;97.52;99716.72;5031932;28;20290;-85
2021/07/25 02:51:30;;;;;;;37.47;23.98;;;19.10;99.90;;;18.86;97.41;99710.09;5031749;28;20080;-84
2021/07/25 02:53:58;;;;;;;38.28;25.38;;;19.20;99.90;;;18.84;97.15;99708.69;5031617;28;20128;-85
2021/07/25 02:56:25;;;;;;;40.15;25.92;;;19.10;99.90;;;18.83;97.18;99712.53;5013229;28;20144;-84
2021/07/25 02:58:52;;;;;;;34.45;24.58;;;19.10;99.90;;;18.80;97.16;99715.81;5031664;28;20041;-85
2021/07/25 03:01:21;;;;;;;37.00;24.15;;;19.00;99.90;;;18.82;96.87;99721.91;5031300;28;20045;-84
2021/07/25 03:03:48;;;;;;;36.45;21.83;;;19.00;99.90;;;18.78;96.87;99716.06;5031527;28;20047;-85
2021/07/25 03:06:15;;;;;;;30.45;21.20;;;19.00;99.90;;;18.76;96.57;99721.81;5030809;28;20325;-85
2021/07/25 03:08:43;;;;;;;29.35;21.52;;;18.90;99.90;;;18.75;96.47;99720.16;5031665;28;20457;-85
2021/07/25 03:11:10;;;;;;;36.90;21.92;;;18.90;99.90;;;18.71;96.26;99713.47;5013720;28;20128;-85
2021/07/25 03:13:39;;;;;;;32.22;22.00;;;18.90;99.90;;;18.68;96.20;99708.50;5031560;28;20045;-84
2021/07/25 03:16:08;;;;;;;28.80;21.15;;;18.80;99.90;;;18.67;95.74;99717.03;5030781;28;20141;-85
2021/07/25 03:18:37;;;;;;;31.23;21.00;;;18.80;99.90;;;18.67;95.64;99717.03;5031538;28;20422;-84
2021/07/25 03:21:06;;;;;;;31.77;22.98;;;18.80;99.90;;;18.66;95.52;99716.19;5031123;28;20516;-85
2021/07/25 03:23:34;;;;;;;29.20;21.25;;;18.80;99.90;;;18.63;95.39;99722.22;5031310;28;20049;-85
2021/07/25 03:26:02;;;;;;;31.13;22.00;;;18.70;99.90;;;18.62;95.20;99719.72;5030541;28;20045;-85
2021/07/25 03:28:29;;;;;;;31.63;21.75;;;18.70;99.90;;;18.60;95.47;99725.50;5031055;28;20045;-85
2021/07/25 03:30:56;;;;;;;34.15;23.60;;;18.70;99.90;;;18.59;95.47;99721.06;5030970;28;20100;-85
2021/07/25 03:33:24;;;;;;;35.88;23.73;;;18.70;99.90;;;18.58;95.40;99724.91;5031073;28;20042;-85
2021/07/25 03:35:52;;;;;;;38.28;25.13;;;18.70;99.90;;;18.58;95.58;99727.66;5030458;28;20124;-84
2021/07/25 03:38:20;;;;;;;36.95;24.70;;;18.70;99.90;;;18.58;95.75;99727.66;5030883;28;20103;-85
2021/07/25 03:40:47;;;;;;;35.28;24.75;;;18.70;99.90;;;18.57;95.82;99723.25;5030733;28;20038;-85
2021/07/25 03:43:16;;;;;;;38.78;25.23;;;18.70;99.90;;;18.58;95.67;99722.13;5031003;28;20111;-85
2021/07/25 03:45:45;;;;;;;34.35;23.42;;;18.70;99.90;;;18.56;95.62;99716.91;5030811;28;20058;-85
2021/07/25 03:48:13;;;;;;;36.22;23.13;;;18.70;99.90;;;18.56;95.67;99721.56;5030406;28;20092;-84
2021/07/25 03:50:42;;;;;;;38.25;23.65;;;18.70;99.90;;;18.56;95.76;99716.06;5012880;28;20517;-85
2021/07/25 03:53:11;;;;;;;33.03;21.58;;;18.70;99.90;;;18.55;95.68;99720.75;5030779;28;20045;-85
2021/07/25 03:55:38;;;;;;;36.58;23.50;;;18.70;99.90;;;18.55;95.68;99708.91;5030572;28;20045;-85
2021/07/25 03:58:06;;;;;;;36.58;23.33;;;18.70;99.90;;;18.53;95.81;99717.41;5029660;28;20111;-85
2021/07/25 04:00:33;;;;;;;32.72;23.13;;;18.70;99.90;;;18.51;95.74;99714.09;5030512;28;20120;-84
2021/07/25 04:03:00;;;;;;;31.80;22.33;;;18.70;99.90;;;18.52;95.80;99714.91;5030400;28;20041;-85
2021/07/25 04:05:28;;;;;;;36.47;23.52;;;18.70;99.90;;;18.53;95.52;99711.09;5012554;28;20115;-84
2021/07/25 04:07:55;;;;;;;42.40;25.50;;;18.80;99.90;;;18.54;95.72;99712.72;5029608;28;20502;-84
2021/07/25 04:10:24;;;;;;;35.60;23.27;;;18.80;99.90;;;18.53;95.52;99716.59;5030327;28;20037;-85
2021/07/25 04:12:51;;;;;;;34.72;23.70;;;18.80;99.90;;;18.53;95.56;99716.59;5030362;28;20124;-85
2021/07/25 04:15:20;;;;;;;39.97;24.58;;;18.80;99.90;;;18.55;95.39;99717.16;5012599;28;20107;-85
2021/07/25 04:17:47;;;;;;;36.63;24.75;;;18.80;99.90;;;18.52;95.76;99712.16;5029794;28;20120;-84
2021/07/25 04:20:15;;;;;;;38.08;24.73;;;18.80;99.90;;;18.52;96.03;99721.28;5012653;28;20492;-85
2021/07/25 04:22:42;;;;;;;40.33;26.05;;;18.90;99.90;;;18.55;96.20;99717.16;5030225;28;20418;-84
2021/07/25 04:25:10;;;;;;;40.20;25.75;;;18.90;99.90;;;18.55;95.98;99719.91;5030183;28;20073;-85
2021/07/25 04:27:40;;;;;;;42.92;25.70;;;19.00;99.90;;;18.56;96.34;99721.56;5029355;28;20041;-84
2021/07/25 04:30:09;;;;;;;36.25;24.90;;;19.00;99.90;;;18.58;96.42;99718.56;5030120;28;20038;-85
2021/07/25 04:32:37;;;;;;;40.00;25.67;;;19.10;99.90;;;18.56;96.94;99711.41;5029678;28;20140;-84
2021/07/25 04:35:07;;;;;;;40.33;25.83;;;19.10;99.90;;;18.58;97.21;99719.38;5029017;28;20037;-85
2021/07/25 04:37:37;;;;;;;40.05;24.30;;;19.20;99.90;;;18.58;97.41;99719.38;5029182;28;20052;-85
2021/07/25 04:40:06;;;;;;;39.10;24.70;;;19.20;99.90;;;18.59;97.40;99721.06;5029830;28;20053;-85
2021/07/25 04:42:38;;;;;;;40.17;24.17;;;19.30;99.90;;;18.60;97.69;99728.25;5029536;28;20656;-85
2021/07/25 04:45:08;;;;;;;37.40;23.85;;;19.30;99.90;;;18.61;97.74;99729.09;5029822;28;20073;-84
2021/07/25 04:47:41;;;;;;;35.17;23.45;;;19.40;99.70;;;18.63;97.91;99738.75;5029103;28;20402;-84
2021/07/25 04:50:16;;;;;;;37.35;23.38;;;19.40;99.70;;;18.66;97.68;99735.50;5029960;28;20049;-85
2021/07/25 04:52:51;;;;;;;38.28;22.70;;;19.50;99.50;;;18.67;97.77;99737.13;5029678;28;20556;-85
2021/07/25 04:55:23;;;;;;;37.08;22.10;;;19.50;99.30;;;18.69;98.16;99729.44;5029691;28;20045;-85
2021/07/25 04:58:02;;;;;;;33.97;21.75;;;19.60;99.00;;;18.73;98.25;99744.41;5028831;28;20073;-85
2021/07/25 05:00:32;;;;;;;33.10;21.73;;;19.70;98.70;;;18.75;98.24;99739.47;5029696;28;20123;-85
2021/07/25 05:03:03;;;;;;;35.20;21.42;;;19.80;98.20;;;18.76;98.38;99746.63;5029221;28;20134;-85
2021/07/25 05:05:32;;;;;;;;;;;19.90;98.00;;;18.75;98.85;99744.97;5029710;28;20131;-85
2021/07/25 05:08:02;;;;;;;32.78;20.90;;;20.00;97.70;;;18.80;98.38;99744.22;5010942;28;20650;-85
2021/07/25 05:10:31;;;;;;;32.63;20.90;;;20.10;97.30;;;18.84;98.46;99752.81;5029238;28;20073;-85
2021/07/25 05:13:09;;;;;;;34.65;21.50;;;20.10;97.10;;;18.86;98.49;99743.19;5011423;28;20716;-85
2021/07/25 05:15:41;;;;;;;35.47;22.90;;;20.20;96.80;;;18.87;99.34;99746.78;5011476;28;20572;-85
2021/07/25 05:18:15;;;;;;;35.45;22.50;;;20.20;97.10;;;18.88;99.23;99749.28;5027442;28;20091;-85
2021/07/25 05:21:01;;;;;;;32.80;21.70;;;20.30;96.90;;;18.91;99.29;99750.69;5029282;28;20461;-85
2021/07/25 05:23:39;;;;;;;30.83;21.13;;;20.30;96.80;;;18.93;99.71;99740.25;5029438;28;20437;-85
2021/07/25 05:26:10;;;;;;;33.83;19.50;;;20.40;96.80;;;18.97;99.57;99741.38;5028640;28;20521;-85
2021/07/25 05:28:39;;;;;;;;;;;20.50;96.90;;;18.98;99.61;99745.78;5011959;28;20085;-85
2021/07/25 05:31:08;;;;;;;29.30;18.73;;;20.50;96.50;;;18.99;100.00;99730.09;5028904;28;20027;-85
2021/07/25 05:33:36;;;;;;;29.48;18.58;;;20.50;96.60;;;19.01;100.00;99728.72;5029150;28;20079;-85
2021/07/25 05:36:04;;;;;;;25.58;17.60;;;20.50;97.10;;;19.02;99.74;99733.16;5028409;28;20042;-85
2021/07/25 05:38:31;;;;;;;28.08;18.35;;;20.50;96.50;;;19.04;100.00;99733.75;5029115;28;20080;-85
2021/07/25 05:40:58;;;;;;;26.13;17.15;;;20.50;96.60;;;19.05;100.00;99735.38;5028940;28;20088;-85
2021/07/25 05:43:25;;;;;;;28.73;16.83;;;20.50;96.70;;;19.09;99.71;99730.19;5029056;28;20044;-86
2021/07/25 05:45:54;;;;;;;26.75;17.90;;;20.50;96.60;;;19.11;100.00;99736.28;5029865;28;20579;-85
2021/07/25 05:48:21;;;;;;;25.70;16.83;;;20.60;96.90;;;19.14;100.00;99744.88;5015395;28;20148;-85
2021/07/25 05:50:50;;;;;;;25.52;16.75;;;20.60;96.40;;;19.20;99.87;99742.16;5033146;28;20045;-85
2021/07/25 05:53:17;;;;;;;27.02;15.98;;;20.70;96.50;;;19.26;100.00;99749.41;5033248;28;20048;-85
2021/07/25 05:55:44;;;;;;;23.77;14.85;;;20.80;96.50;;;19.32;99.70;99751.09;5033054;28;20556;-86
2021/07/25 05:58:12;;;;;;;27.00;14.75;;;20.90;95.40;;;19.41;99.54;99745.94;5032452;28;20759;-86
2021/07/25 06:00:39;;;;;;;22.15;14.25;;;21.20;94.20;;;19.54;98.88;99748.28;5032836;28;20108;-85
2021/07/25 06:03:07;;;;;;;23.88;14.18;;;21.90;91.30;;;19.64;98.47;99739.25;5014813;28;20051;-85
2021/07/25 06:05:37;;;;;;;22.45;12.73;;;22.90;85.90;;;19.77;97.76;99752.63;5032686;28;20113;-86
2021/07/25 06:08:06;;;;;;;19.92;11.60;;;22.90;86.20;;;19.94;96.48;99743.38;5032084;28;20099;-85
2021/07/25 06:10:36;;;;;;;15.68;11.02;;;22.90;86.00;;;20.06;96.21;99733.78;5032688;28;20456;-85
2021/07/25 06:13:05;;;;;;;19.05;9.90;;;23.80;83.80;;;20.23;95.74;99752.94;5032489;28;20076;-86
2021/07/25 06:15:35;;;;;;;15.20;10.18;;;25.70;74.40;;;20.28;94.41;99746.63;5014694;28;20075;-86
2021/07/25 06:18:05;;;;;;;16.95;9.80;;;27.30;66.60;;;20.41;94.24;99739.75;5031969;28;20057;-86
2021/07/25 06:20:37;;;;;;;15.43;8.68;;;28.40;62.30;;;20.54;92.81;99747.56;5032592;28;20041;-86
2021/07/25 06:23:05;;;;;;;13.32;8.10;;;28.80;59.70;;;20.61;92.33;99748.19;5032677;28;20038;-86
2021/07/25 06:25:34;;;;;;;20.40;8.45;;;28.50;60.20;;;20.69;92.18;99755.97;5032405;28;20069;-87
2021/07/25 06:28:04;;;;;;;12.40;7.70;;;27.60;64.70;;;20.77;91.55;99754.63;5031495;28;20091;-86
2021/07/25 06:30:32;;;;;;;13.52;8.20;;;26.80;67.10;;;20.79;92.11;99757.09;5014549;28;20426;-86
2021/07/25 06:33:03;;;;;;;15.57;8.15;;;26.00;70.40;;;20.80;91.02;99753.25;5014577;28;20053;-86
2021/07/25 06:35:34;;;;;;;13.50;7.20;;;25.60;71.90;;;20.82;92.06;99751.84;5014258;28;20083;-86
2021/07/25 06:38:04;;;;;;;12.65;6.60;;;25.20;74.30;;;20.85;90.79;99762.38;5013615;28;20061;-85
2021/07/25 06:40:34;;;;;;;15.15;7.70;;;24.90;74.50;;;20.89;91.78;99762.69;5032104;28;20100;-86
2021/07/25 06:43:03;;;;;;;13.23;7.28;;;24.80;76.40;;;20.92;91.06;99769.59;5032090;28;20056;-86
2021/07/25 06:45:32;;;;;;;14.13;7.00;;;24.70;76.80;;;20.88;90.75;99775.66;5031809;28;20053;-86
2021/07/25 06:47:59;;;;;;;13.27;6.57;;;24.60;76.80;;;20.89;91.32;99773.75;5031265;28;20037;-86
2021/07/25 06:50:28;;;;;;;12.98;6.63;;;24.50;77.90;;;20.90;91.54;99775.41;5032018;28;20206;-87
2021/07/25 06:52:59;;;;;;;11.52;6.32;;;24.50;78.10;;;20.94;91.63;99776.50;5032017;28;20084;-86
2021/07/25 06:55:29;;;;;;;10.00;6.30;;;24.40;78.50;;;20.96;91.00;99779.00;5014180;28;20045;-86
2021/07/25 06:57:57;;;;;;;10.63;6.33;;;24.30;78.40;;;20.97;91.50;99773.22;5030786;28;20091;-86
2021/07/25 07:00:27;;;;;;;10.80;6.43;;;24.20;79.10;;;20.97;90.83;99775.97;5031873;28;20582;-85
2021/07/25 07:02:56;;;;;;;14.10;6.63;;;24.20;79.20;;;20.98;89.34;99771.28;5013836;28;20049;-86
2021/07/25 07:05:26;;;;;;;14.45;6.03;;;24.10;78.60;;;21.01;91.17;99770.75;5013925;28;20497;-86
2021/07/25 07:08:03;;;;;;;10.52;5.53;;;24.10;80.50;;;21.02;91.58;99781.53;5013278;28;20045;-86
2021/07/25 07:10:33;;;;;;;11.95;5.72;;;24.10;80.60;;;21.02;91.44;99773.25;5031583;28;20100;-86
2021/07/25 07:13:03;;;;;;;12.00;5.78;;;24.00;80.80;;;21.05;92.54;99778.19;5031599;28;20397;-86
2021/07/25 07:15:31;;;;;;;9.25;5.18;;;24.00;82.10;;;21.06;91.90;99774.34;5031539;28;20041;-86
2021/07/25 07:18:02;;;;;;;9.93;5.25;;;23.90;81.30;;;21.08;91.59;99783.22;5030826;28;20049;-87
2021/07/25 07:20:30;;;;;;;12.27;5.30;;;23.90;81.60;;;21.11;90.58;99778.22;5031529;28;20053;-86
2021/07/25 07:23:01;;;;;;;14.50;5.53;;;23.90;81.00;;;21.08;90.01;99783.22;5013867;28;20038;-86
2021/07/25 07:25:31;;;;;;;8.60;5.35;;;23.80;80.60;;;21.11;89.34;99781.00;5013562;28;20057;-87
2021/07/25 07:28:06;;;;;;;9.88;5.40;;;23.70;81.20;;;21.13;90.16;99787.09;5030858;28;20103;-85
2021/07/25 07:30:34;;;;;;;10.43;5.10;;;23.70;82.30;;;21.16;90.37;99786.56;5031469;28;20053;-85
2021/07/25 07:33:12;;;;;;;10.52;5.05;;;23.70;81.90;;;21.14;89.35;99780.47;5031222;28;20474;-86
2021/07/25 07:35:40;;;;;;;8.10;5.10;;;23.70;81.90;;;21.20;90.15;99774.66;5031472;28;20056;-86
2021/07/25 07:38:15;;;;;;;10.10;5.45;;;23.70;82.00;;;21.21;90.69;99783.78;5012582;28;20045;-85
2021/07/25 07:40:44;;;;;;;11.48;5.35;;;23.70;82.70;;;21.20;89.87;99785.72;5030937;28;20648;-86
2021/07/25 07:43:14;;;;;;;7.70;4.82;;;23.70;82.10;;;21.22;90.30;99789.03;5012859;28;20053;-86
2021/07/25 07:45:43;;;;;;;7.80;4.80;;;23.80;82.10;;;21.25;88.94;99790.47;5030740;28;20041;-86
2021/07/25 07:48:10;;;;;;;8.20;4.70;;;23.80;81.60;;;21.31;90.14;99786.59;5030213;28;20052;-85
2021/07/25 07:50:40;;;;;;;8.73;4.60;;;23.90;81.90;;;21.32;87.92;99787.41;5030686;28;20083;-86
2021/07/25 07:53:09;;;;;;;9.02;4.40;;;23.90;80.60;;;21.33;86.63;99784.38;5013139;28;20053;-86
2021/07/25 07:55:36;;;;;;;8.75;4.93;;;23.90;80.40;;;21.34;88.89;99786.00;5030770;28;20128;-86
2021/07/25 07:58:04;;;;;;;8.93;4.68;;;23.90;81.10;;;21.38;89.77;99786.31;5012465;28;20045;-86
2021/07/25 08:00:31;;;;;;;8.82;4.50;;;24.00;81.40;;;21.41;88.03;99783.81;5012986;28;20045;-85
2021/07/25 08:02:59;;;;;;;7.95;4.47;;;24.10;81.00;;;21.42;87.06;99771.66;5060321;23;20057;-79
2021/07/25 08:05:26;;;;;;;9.60;4.78;;;24.10;80.20;;;21.42;89.45;99777.19;5032531;28;20095;-79
2021/07/25 08:07:53;;;;;;;10.10;5.10;;;24.10;81.40;;;21.45;89.39;99782.19;5048972;28;20049;-79
2021/07/25 08:10:22;;;;;;;10.30;4.63;;;24.20;81.00;;;21.48;86.59;99783.59;5050246;28;20124;-79
2021/07/25 08:12:49;;;;;;;9.20;4.65;;;24.10;79.90;;;21.46;86.45;99778.34;5045635;28;20060;-79
2021/07/25 08:15:18;;;;;;;7.13;4.35;;;24.10;79.60;;;21.44;85.37;99779.72;5030309;28;20421;-79
2021/07/25 08:17:45;;;;;;;9.48;4.43;;;24.10;79.10;;;21.42;85.51;99777.19;5011746;28;20045;-79
2021/07/25 08:20:13;;;;;;;9.48;4.50;;;24.10;79.40;;;21.43;85.89;99778.84;5030177;28;20041;-79
2021/07/25 08:22:41;;;;;;;7.03;4.22;;;24.20;79.30;;;21.46;85.28;99783.88;5030071;28;20490;-79
2021/07/25 08:25:11;;;;;;;9.10;4.90;;;24.30;78.60;;;21.54;86.81;99779.72;5030101;28;20064;-79
2021/07/25 08:27:40;;;;;;;6.97;3.90;;;24.50;78.70;;;21.58;85.27;99785.53;5029685;28;20055;-79
2021/07/25 08:30:09;;;;;;;10.10;5.07;;;24.60;78.00;;;21.63;89.06;99785.56;5030496;28;20172;-79
2021/07/25 08:32:36;;;;;;;6.63;4.13;;;24.60;79.70;;;21.69;92.00;99784.44;5030353;28;20061;-79
2021/07/25 08:35:05;;;;;;;7.65;4.18;;;24.60;81.40;;;21.76;91.35;99778.63;5029875;28;20037;-79
2021/07/25 08:37:32;;;;;;;7.07;4.05;;;24.60;81.20;;;21.75;87.76;99775.03;5029328;28;20591;-79
2021/07/25 08:40:01;;;;;;;9.75;4.45;;;24.50;79.90;;;21.77;87.68;99781.13;5030074;28;20054;-79
2021/07/25 08:42:34;;;;;;;8.68;4.43;;;24.50;79.50;;;21.82;87.54;99775.59;5029716;28;20498;-79
2021/07/25 08:45:02;;;;;;;9.68;4.40;;;24.50;79.90;;;21.82;87.42;99780.31;5029646;28;20041;-79
2021/07/25 08:47:40;;;;;;;8.07;4.10;;;24.50;79.40;;;21.89;85.96;99780.00;5029118;28;20053;-79
2021/07/25 08:50:12;;;;;;;8.70;4.13;;;24.50;79.80;;;21.92;85.64;99779.47;5029823;28;20047;-79
2021/07/25 08:52:45;;;;;;;8.15;4.00;;;24.40;79.50;;;21.92;84.53;99785.00;5011812;28;20140;-79
2021/07/25 08:55:15;;;;;;;7.95;3.88;;;24.50;79.10;;;21.92;84.79;99782.22;5029652;28;20041;-79
2021/07/25 08:57:45;;;;;;;7.15;4.00;;;24.50;79.00;;;21.94;83.20;99785.56;5028827;28;20554;-79
2021/07/25 09:00:17;;;;;;;7.60;3.95;;;24.40;77.90;;;22.06;86.14;99783.31;5029622;28;20107;-79
2021/07/25 09:02:45;;;;;;;9.00;4.47;;;24.50;80.10;;;22.10;84.19;99781.63;5029621;28;20065;-79
2021/07/25 09:05:13;;;;;;;9.07;3.90;;;24.50;78.80;;;22.07;84.01;99784.97;5029571;28;20124;-79
2021/07/25 09:07:45;;;;;;;7.05;3.83;;;24.50;78.30;;;22.12;85.27;99786.91;5028863;28;20049;-79
2021/07/25 09:10:15;;;;;;;8.18;4.43;;;24.50;79.20;;;22.15;85.18;99789.94;5029714;28;20096;-79
2021/07/25 09:12:43;;;;;;;10.68;4.28;;;24.60;80.00;;;22.18;84.91;99783.00;5029574;28;20037;-79
2021/07/25 09:15:16;;;;;;;8.25;4.07;;;24.60;79.40;;;22.22;83.64;99781.38;5029336;28;20041;-79
2021/07/25 09:17:44;;;;;;;10.38;4.20;;;24.60;78.80;;;22.21;85.21;99780.50;5028779;28;20069;-79
2021/07/25 09:20:23;;;;;;;24.42;4.53;;;24.60;78.90;;;22.22;83.40;99779.41;5011314;28;20081;-79
2021/07/25 09:23:08;;;;;;;8.27;4.18;;;24.60;78.60;;;22.30;85.69;99777.22;5029210;28;20057;-79
2021/07/25 09:25:43;;;;;;;10.63;4.13;;;24.70;80.20;;;22.34;83.81;99775.53;5029036;28;20045;-79
2021/07/25 09:28:20;;;;;;;6.70;4.07;;;24.60;78.60;;;22.31;81.30;99778.88;5028689;28;20115;-79
2021/07/25 09:30:51;;;;;;;9.95;4.03;;;24.70;78.10;;;22.28;81.81;99783.03;5029171;28;20072;-79
2021/07/25 09:33:28;;;;;;;9.53;3.80;;;24.60;78.20;;;22.31;81.98;99778.88;5029322;28;20410;-79
2021/07/25 09:36:11;;;;;;;9.57;4.70;;;24.70;78.00;;;22.38;84.72;99783.00;5028671;28;20502;-79
2021/07/25 09:38:40;;;;;;;6.07;3.88;;;24.70;80.00;;;22.36;81.62;99784.41;5029363;28;20049;-79
2021/07/25 09:41:23;;;;;;;6.63;4.28;;;24.70;77.20;;;22.42;81.25;99786.88;5029017;28;20057;-79
2021/07/25 09:44:04;;;;;;;10.05;4.38;;;24.70;78.20;;;22.48;82.54;99786.88;5029205;28;20119;-79
2021/07/25 09:46:50;;;;;;;9.25;4.47;;;24.80;78.20;;;22.52;81.48;99785.19;5028321;28;20045;-79
2021/07/25 09:49:19;;;;;;;6.88;3.70;;;24.80;77.60;;;22.45;79.29;99782.72;5029087;28;20106;-79
2021/07/25 09:51:47;;;;;;;6.78;3.95;;;24.80;76.40;;;22.52;81.67;99779.63;5028751;28;20414;-79
2021/07/25 09:54:15;;;;;;;7.40;3.70;;;24.80;77.80;;;22.52;79.79;99777.69;5029011;28;20136;-79
2021/07/25 09:56:43;;;;;;;9.10;4.32;;;24.80;76.90;;;22.60;81.27;99787.41;5028299;28;20589;-79
2021/07/25 09:59:25;;;;;;;6.80;4.30;;;24.80;77.50;;;22.60;82.48;99781.84;5028861;28;20132;-79
2021/07/25 10:01:53;;;;;;;6.78;3.80;;;24.80;78.90;;;22.60;79.83;99782.69;5028701;28;20123;-79
2021/07/25 10:04:23;;;;;;;5.93;3.70;;;24.90;76.70;;;22.61;78.56;99787.09;5028937;28;20053;-79
2021/07/25 10:06:53;;;;;;;7.43;3.85;;;24.80;75.80;;;22.60;80.39;99785.44;5028468;28;20146;-79
2021/07/25 10:09:23;;;;;;;7.73;4.00;;;24.80;76.70;;;22.64;79.75;99785.72;5029177;28;20041;-79
2021/07/25 10:11:55;;;;;;;6.50;4.15;;;24.90;77.20;;;22.65;78.67;99779.03;5028725;28;20129;-79
2021/07/25 10:14:23;;;;;;;9.02;4.40;;;24.90;76.10;;;22.73;80.25;99783.16;5028758;28;20096;-79
2021/07/25 10:16:57;;;;;;;7.15;3.65;;;25.00;77.30;;;22.73;79.06;99784.03;5028078;28;20132;-79
2021/07/25 10:19:28;;;;;;;6.65;3.75;;;25.00;75.20;;;22.73;76.85;99784.03;5028703;28;20045;-79
2021/07/25 10:21:58;;;;;;;7.60;3.80;;;25.00;75.00;;;22.75;80.86;99778.16;5028526;28;20060;-79